Time;durP1;ratioP1;P1;durP2;ratioP2;P2;SDS_P1;SDS_P2;PMS_P1;PMS_P2;Temp;Humidity;BMP_temperature;BMP_pressure;BME280_temperature;BME280_humidity;BME280_pressure;Samples;Min_cycle;Max_cycle;Signal;HPM_P1;HPM_P2
2021/09/24 00:00:23;;;;;;;3.85;2.78;;;15.10;75.10;;;;;;5086029;28;20094;-72
2021/09/24 00:02:49;;;;;;;;;;;15.10;75.20;;;;;;5103880;28;20016;-72
2021/09/24 00:05:15;;;;;;;4.30;2.67;;;15.10;75.40;;;;;;5102536;28;19911;-73
2021/09/24 00:07:41;;;;;;;6.70;3.30;;;15.00;75.80;;;;;;5103689;28;20035;-72
2021/09/24 00:10:08;;;;;;;5.23;2.90;;;15.10;75.70;;;;;;5085572;28;20410;-73
2021/09/24 00:12:34;;;;;;;5.28;3.00;;;15.00;75.80;;;;;;5085421;28;20050;-72
2021/09/24 00:15:00;;;;;;;4.37;2.90;;;15.00;75.80;;;;;;5103458;28;20023;-72
2021/09/24 00:17:25;;;;;;;5.07;2.93;;;15.10;75.60;;;;;;5106256;28;20016;-72
2021/09/24 00:19:51;;;;;;;4.80;3.10;;;15.10;75.50;;;;;;5088724;28;20315;-73
2021/09/24 00:22:17;;;;;;;3.90;2.73;;;15.10;75.70;;;;;;5104496;28;20328;-72
2021/09/24 00:24:43;;;;;;;4.87;3.17;;;15.10;75.50;;;;;;5104355;28;20027;-73
2021/09/24 00:27:09;;;;;;;3.47;2.77;;;15.10;75.50;;;;;;5086120;28;20062;-72
2021/09/24 00:29:34;;;;;;;6.17;2.67;;;15.10;75.70;;;;;;5102604;28;20027;-72
2021/09/24 00:32:00;;;;;;;4.87;3.00;;;15.00;75.80;;;;;;5101609;28;20023;-73
2021/09/24 00:34:26;;;;;;;3.57;2.90;;;14.90;76.10;;;;;;5068379;28;20083;-73
2021/09/24 00:36:52;;;;;;;4.17;2.57;;;14.90;76.00;;;;;;5102104;28;20028;-73
2021/09/24 00:39:18;;;;;;;4.53;2.90;;;14.90;76.20;;;;;;5102019;28;20035;-73
2021/09/24 00:41:43;;;;;;;5.10;2.80;;;14.80;76.50;;;;;;5102802;28;20060;-73
2021/09/24 00:44:09;;;;;;;3.90;2.73;;;14.80;76.60;;;;;;5084895;28;20031;-73
2021/09/24 00:46:35;;;;;;;5.23;3.10;;;14.90;76.20;;;;;;5101635;28;20023;-73
2021/09/24 00:49:01;;;;;;;4.67;2.73;;;14.90;76.30;;;;;;5102963;28;20065;-73
2021/09/24 00:51:26;;;;;;;3.57;2.80;;;14.80;76.40;;;;;;5118473;28;20032;-73
2021/09/24 00:53:53;;;;;;;5.47;3.40;;;14.80;76.50;;;;;;5102808;28;20020;-73
2021/09/24 00:56:18;;;;;;;3.97;2.92;;;14.80;76.70;;;;;;5102790;28;20016;-73
2021/09/24 00:58:44;;;;;;;3.87;2.63;;;14.80;76.70;;;;;;5101579;28;20062;-73
2021/09/24 01:01:10;;;;;;;4.63;3.30;;;14.80;76.60;;;;;;5100997;28;20445;-73
2021/09/24 01:03:36;;;;;;;5.83;3.33;;;14.80;76.90;;;;;;5101588;28;20047;-73
2021/09/24 01:06:02;;;;;;;5.13;2.80;;;14.70;76.70;;;;;;5102503;28;20035;-73
2021/09/24 01:08:30;;;;;;;5.20;2.83;;;14.70;76.80;;;;;;5101456;28;20027;-73
2021/09/24 01:10:56;;;;;;;3.53;2.70;;;14.70;77.00;;;;;;5117969;28;20031;-73
2021/09/24 01:13:22;;;;;;;5.37;2.83;;;14.80;76.80;;;;;;5118461;28;20028;-72
2021/09/24 01:15:47;;;;;;;5.07;2.90;;;14.70;77.00;;;;;;5101022;28;20220;-72
2021/09/24 01:18:13;;;;;;;4.47;3.10;;;14.70;77.00;;;;;;5101356;28;20027;-73
2021/09/24 01:20:39;;;;;;;6.33;2.87;;;14.70;77.00;;;;;;5101251;28;20027;-73
2021/09/24 01:23:05;;;;;;;4.82;3.13;;;14.60;77.40;;;;;;5117989;28;20039;-72
2021/09/24 01:25:31;;;;;;;4.17;2.73;;;14.60;77.50;;;;;;5118232;28;20023;-73
2021/09/24 01:27:57;;;;;;;3.57;2.80;;;14.50;77.70;;;;;;5102392;28;20032;-72
2021/09/24 01:30:23;;;;;;;3.53;3.07;;;14.50;77.70;;;;;;5118130;28;20069;-72
2021/09/24 01:32:49;;;;;;;8.10;3.50;;;14.50;77.50;;;;;;5100757;28;20035;-73
2021/09/24 01:35:15;;;;;;;3.77;2.70;;;14.60;77.70;;;;;;5118141;28;20032;-73
2021/09/24 01:37:41;;;;;;;5.53;3.17;;;14.50;77.40;;;;;;5137371;22;20036;-74
2021/09/24 01:40:18;;;;;;;5.43;3.17;;;14.60;77.50;;;;;;5094110;28;20027;-74
2021/09/24 01:42:44;;;;;;;3.97;2.83;;;14.60;77.20;;;;;;5084508;28;20141;-74
2021/09/24 01:45:11;;;;;;;4.82;2.92;;;14.60;77.30;;;;;;5067786;28;20032;-74
2021/09/24 01:47:37;;;;;;;5.43;2.78;;;14.60;77.50;;;;;;5103113;28;20027;-74
2021/09/24 01:50:05;;;;;;;6.20;3.20;;;14.60;77.50;;;;;;5106482;28;20073;-74
2021/09/24 01:52:30;;;;;;;6.65;3.20;;;14.50;77.30;;;;;;5071517;28;20024;-73
2021/09/24 01:54:56;;;;;;;3.93;2.63;;;14.50;77.50;;;;;;5088680;28;20020;-74
2021/09/24 01:57:23;;;;;;;4.63;2.87;;;14.60;77.40;;;;;;5071858;28;20066;-74
2021/09/24 01:59:49;;;;;;;4.80;2.60;;;14.60;77.10;;;;;;5105443;28;20019;-74
2021/09/24 02:02:15;;;;;;;6.57;3.03;;;14.50;77.30;;;;;;5071430;28;20032;-74
2021/09/24 02:04:41;;;;;;;5.43;3.70;;;14.50;77.20;;;;;;5071710;28;20050;-74
2021/09/24 02:07:06;;;;;;;3.50;2.60;;;14.50;77.20;;;;;;5104093;28;20027;-74
2021/09/24 02:09:33;;;;;;;8.40;3.07;;;14.50;77.20;;;;;;5032056;28;20040;-74
2021/09/24 02:11:59;;;;;;;6.45;3.10;;;14.50;77.50;;;;;;5048146;28;20066;-73
2021/09/24 02:14:25;;;;;;;4.15;2.80;;;14.50;77.40;;;;;;5048403;28;20092;-74
2021/09/24 02:16:51;;;;;;;5.17;3.00;;;14.50;77.50;;;;;;5048429;28;20335;-74
2021/09/24 02:19:17;;;;;;;4.17;2.70;;;14.40;77.40;;;;;;5064669;28;20031;-74
2021/09/24 02:21:43;;;;;;;5.27;2.53;;;14.40;77.60;;;;;;5047870;28;20029;-74
2021/09/24 02:24:08;;;;;;;3.80;2.67;;;14.40;77.80;;;;;;5064639;28;20039;-74
2021/09/24 02:26:34;;;;;;;5.77;3.27;;;14.40;77.80;;;;;;5064752;28;20029;-74
2021/09/24 02:29:00;;;;;;;4.80;2.63;;;14.40;77.80;;;;;;5064607;28;20052;-74
2021/09/24 02:31:26;;;;;;;3.87;2.90;;;14.30;78.20;;;;;;5065358;28;20029;-74
2021/09/24 02:33:52;;;;;;;4.63;2.63;;;14.40;77.80;;;;;;5048168;28;20025;-74
2021/09/24 02:36:17;;;;;;;5.13;2.97;;;14.30;78.10;;;;;;5064881;28;20021;-74
2021/09/24 02:38:43;;;;;;;4.70;3.03;;;14.40;78.20;;;;;;5064325;28;20079;-74
2021/09/24 02:41:09;;;;;;;4.30;3.10;;;14.30;78.30;;;;;;5081051;28;20021;-74
2021/09/24 02:43:35;;;;;;;4.17;3.20;;;14.40;78.20;;;;;;5065587;28;20029;-74
2021/09/24 02:46:01;;;;;;;6.07;2.73;;;14.30;78.20;;;;;;5065737;28;20131;-74
2021/09/24 02:48:27;;;;;;;6.77;3.60;;;14.30;78.30;;;;;;5047729;28;20024;-74
2021/09/24 02:50:53;;;;;;;6.63;3.47;;;14.20;78.50;;;;;;5047808;28;20071;-74
2021/09/24 02:53:18;;;;;;;6.17;3.37;;;14.20;78.70;;;;;;5064139;28;20255;-74
2021/09/24 02:55:44;;;;;;;5.07;3.13;;;14.10;79.20;;;;;;5064098;28;20017;-74
2021/09/24 02:58:10;;;;;;;4.10;2.87;;;14.10;79.40;;;;;;5063477;28;20067;-73
2021/09/24 03:00:36;;;;;;;3.93;2.50;;;14.10;79.40;;;;;;5065088;28;20165;-74
2021/09/24 03:03:01;;;;;;;3.83;2.83;;;14.20;79.30;;;;;;5063881;28;20135;-74
2021/09/24 03:05:27;;;;;;;3.40;2.73;;;14.20;79.20;;;;;;5065100;28;20021;-74
2021/09/24 03:07:53;;;;;;;4.60;3.43;;;14.20;79.50;;;;;;5063670;28;20101;-74
2021/09/24 03:10:19;;;;;;;3.73;2.73;;;14.10;79.40;;;;;;5063930;28;20025;-74
2021/09/24 03:12:45;;;;;;;3.40;2.67;;;14.20;79.50;;;;;;5063588;28;20307;-73
2021/09/24 03:15:12;;;;;;;5.50;3.20;;;14.10;79.40;;;;;;5063835;28;20028;-74
2021/09/24 03:17:38;;;;;;;4.60;3.13;;;14.10;79.80;;;;;;5030633;28;20021;-74
2021/09/24 03:20:06;;;;;;;5.65;3.20;;;14.00;79.90;;;;;;5063945;28;20027;-74
2021/09/24 03:22:32;;;;;;;4.95;3.50;;;14.00;80.20;;;;;;5063435;28;20025;-74
2021/09/24 03:24:57;;;;;;;6.83;3.23;;;14.10;80.20;;;;;;5047185;28;20338;-74
2021/09/24 03:27:23;;;;;;;4.37;3.20;;;14.00;80.80;;;;;;5080027;28;20100;-74
2021/09/24 03:29:49;;;;;;;5.05;3.33;;;14.10;79.90;;;;;;5046980;28;20205;-74
2021/09/24 03:32:21;;;;;;;3.93;3.20;;;14.00;80.40;;;;;;5063213;28;20092;-74
2021/09/24 03:34:48;;;;;;;5.07;2.75;;;14.10;80.20;;;;;;5063657;28;20028;-73
2021/09/24 03:37:14;;;;;;;6.20;3.67;;;14.10;80.10;;;;;;5047010;28;20037;-74
2021/09/24 03:39:39;;;;;;;5.20;3.30;;;14.10;79.70;;;;;;5030508;28;20066;-74
2021/09/24 03:42:06;;;;;;;5.43;3.13;;;14.10;79.80;;;;;;5064159;28;20021;-74
2021/09/24 03:44:32;;;;;;;4.78;3.38;;;14.10;79.50;;;;;;5030539;28;20016;-74
2021/09/24 03:46:58;;;;;;;4.53;2.93;;;14.00;80.10;;;;;;5030338;28;20036;-74
2021/09/24 03:49:24;;;;;;;7.37;3.27;;;14.00;80.20;;;;;;5064578;28;20316;-74
2021/09/24 03:51:51;;;;;;;7.75;3.28;;;14.10;79.80;;;;;;5062708;28;20032;-74
2021/09/24 03:54:17;;;;;;;;;;;14.10;79.90;;;;;;5063531;28;20080;-74
2021/09/24 03:56:43;;;;;;;6.47;3.55;;;14.10;79.90;;;;;;5030882;28;19913;-74
2021/09/24 03:59:12;;;;;;;7.07;3.30;;;14.00;80.40;;;;;;5063904;28;20025;-74
2021/09/24 04:01:39;;;;;;;5.90;3.83;;;14.10;80.00;;;;;;5046853;28;20025;-74
2021/09/24 04:04:05;;;;;;;7.07;3.22;;;14.10;79.70;;;;;;5047169;28;20346;-74
2021/09/24 04:06:31;;;;;;;6.73;3.17;;;14.10;79.90;;;;;;5064626;28;20025;-74
2021/09/24 04:08:57;;;;;;;5.70;3.47;;;14.20;79.90;;;;;;5045637;28;20318;-74
2021/09/24 04:11:23;;;;;;;6.67;3.40;;;14.20;79.80;;;;;;5082489;28;20035;-74
2021/09/24 04:13:48;;;;;;;5.10;3.67;;;14.20;79.90;;;;;;5066846;28;20074;-74
2021/09/24 04:16:14;;;;;;;5.83;3.13;;;14.20;79.80;;;;;;5066411;28;20027;-74
2021/09/24 04:18:40;;;;;;;5.07;3.37;;;14.20;79.80;;;;;;5049942;28;20026;-74
2021/09/24 04:21:06;;;;;;;6.03;3.60;;;14.30;79.90;;;;;;5083956;28;20024;-74
2021/09/24 04:23:32;;;;;;;6.33;4.07;;;14.30;80.00;;;;;;5082824;28;20227;-73
2021/09/24 04:25:58;;;;;;;7.73;3.80;;;14.20;80.20;;;;;;5049745;28;20033;-74
2021/09/24 04:28:24;;;;;;;6.03;4.20;;;14.30;80.40;;;;;;5082977;28;20091;-74
2021/09/24 04:30:49;;;;;;;4.93;3.43;;;14.20;80.60;;;;;;5083700;28;20028;-74
2021/09/24 04:33:15;;;;;;;7.33;3.60;;;14.30;80.90;;;;;;5066269;28;20084;-74
2021/09/24 04:35:41;;;;;;;6.13;3.63;;;14.30;80.90;;;;;;5083806;28;20098;-74
2021/09/24 04:38:07;;;;;;;5.57;3.80;;;14.30;80.80;;;;;;5082240;28;20024;-73
2021/09/24 04:40:33;;;;;;;5.93;3.97;;;14.40;80.50;;;;;;5066178;28;20055;-74
2021/09/24 04:42:59;;;;;;;11.73;3.77;;;14.40;80.00;;;;;;5083280;28;20039;-74
2021/09/24 04:45:24;;;;;;;6.33;3.50;;;14.40;80.00;;;;;;5082569;28;20062;-74
2021/09/24 04:47:50;;;;;;;5.33;3.37;;;14.40;80.30;;;;;;5082524;28;20024;-74
2021/09/24 04:50:16;;;;;;;6.57;3.90;;;14.40;80.40;;;;;;5083678;28;20051;-73
2021/09/24 04:52:42;;;;;;;7.37;3.90;;;14.40;80.70;;;;;;5065314;28;20341;-74
2021/09/24 04:55:08;;;;;;;6.33;4.27;;;14.40;80.90;;;;;;5083896;28;20272;-74
2021/09/24 04:57:34;;;;;;;6.88;3.90;;;14.50;80.90;;;;;;5049039;28;20264;-74
2021/09/24 05:00:00;;;;;;;5.63;3.75;;;14.40;80.70;;;;;;5082657;28;20327;-74
2021/09/24 05:02:26;;;;;;;7.27;4.13;;;14.40;80.60;;;;;;5083341;28;20028;-74
2021/09/24 05:04:52;;;;;;;6.07;3.87;;;14.40;80.50;;;;;;5082565;28;20027;-74
2021/09/24 05:07:18;;;;;;;8.90;4.17;;;14.40;80.90;;;;;;5079613;28;20032;-74
2021/09/24 05:09:43;;;;;;;6.50;4.13;;;14.40;80.90;;;;;;5028754;28;20320;-74
2021/09/24 05:12:09;;;;;;;9.17;4.13;;;14.40;81.00;;;;;;5061803;28;20278;-74
2021/09/24 05:14:35;;;;;;;8.03;4.43;;;14.50;81.30;;;;;;5062374;28;20047;-74
2021/09/24 05:17:01;;;;;;;5.83;4.07;;;14.50;80.80;;;;;;5062206;28;20227;-74
2021/09/24 05:19:27;;;;;;;7.83;3.97;;;14.40;81.10;;;;;;5062077;28;20016;-74
2021/09/24 05:21:52;;;;;;;10.40;4.83;;;14.50;81.00;;;;;;5061462;28;20337;-74
2021/09/24 05:24:18;;;;;;;7.07;4.63;;;14.40;80.80;;;;;;5061702;28;20075;-74
2021/09/24 05:26:44;;;;;;;6.70;4.30;;;14.50;80.70;;;;;;5063402;28;20084;-74
2021/09/24 05:29:10;;;;;;;7.77;4.43;;;14.40;80.90;;;;;;5045756;28;20027;-74
2021/09/24 05:31:36;;;;;;;8.70;4.60;;;14.40;81.20;;;;;;5061533;28;20320;-74
2021/09/24 05:34:02;;;;;;;6.03;3.70;;;14.40;81.30;;;;;;5063053;28;20091;-74
2021/09/24 05:36:28;;;;;;;6.32;4.45;;;14.30;81.60;;;;;;5045547;28;20320;-74
2021/09/24 05:38:54;;;;;;;8.55;4.55;;;14.30;81.60;;;;;;5061457;28;20067;-74
2021/09/24 05:41:20;;;;;;;7.15;4.90;;;14.30;81.60;;;;;;5062632;28;20033;-74
2021/09/24 05:43:48;;;;;;;6.85;4.38;;;14.30;81.50;;;;;;5062682;28;20032;-74
2021/09/24 05:46:14;;;;;;;6.22;4.18;;;14.40;81.20;;;;;;5061834;28;20024;-74
2021/09/24 05:48:40;;;;;;;8.73;4.43;;;14.40;81.40;;;;;;5061515;28;20049;-73
2021/09/24 05:51:06;;;;;;;8.00;4.47;;;14.30;81.40;;;;;;5062343;28;20087;-74
2021/09/24 05:53:32;;;;;;;7.73;5.00;;;14.40;81.10;;;;;;5062847;28;20093;-74
2021/09/24 05:55:58;;;;;;;7.70;4.80;;;14.40;81.10;;;;;;5062100;28;20025;-74
2021/09/24 05:58:23;;;;;;;6.07;4.38;;;14.40;81.30;;;;;;5061718;28;20331;-74
2021/09/24 06:00:52;;;;;;;9.23;5.13;;;14.40;81.00;;;;;;5061487;28;20093;-74
2021/09/24 06:03:18;;;;;;;8.93;4.57;;;14.40;81.00;;;;;;5045212;28;20311;-74
2021/09/24 06:05:43;;;;;;;7.10;4.13;;;14.40;81.30;;;;;;5045271;28;20043;-74
2021/09/24 06:08:09;;;;;;;7.60;5.07;;;14.40;81.10;;;;;;5061517;28;20029;-74
2021/09/24 06:10:38;;;;;;;5.80;4.13;;;14.40;81.40;;;;;;5060182;28;20392;-74
2021/09/24 06:13:04;;;;;;;8.65;4.47;;;14.50;81.30;;;;;;5061523;28;20024;-74
2021/09/24 06:15:30;;;;;;;9.53;4.73;;;14.50;81.20;;;;;;5062734;28;20016;-74
2021/09/24 06:17:55;;;;;;;8.53;5.03;;;14.50;81.00;;;;;;5061504;28;20047;-74
2021/09/24 06:20:21;;;;;;;6.20;4.17;;;14.50;80.90;;;;;;5061729;28;20024;-74
2021/09/24 06:22:47;;;;;;;6.03;4.50;;;14.60;80.90;;;;;;5044592;28;20024;-74
2021/09/24 06:25:13;;;;;;;6.43;4.30;;;14.50;81.00;;;;;;5062740;28;20324;-74
2021/09/24 06:27:39;;;;;;;8.82;5.20;;;14.40;81.00;;;;;;5061540;28;20017;-74
2021/09/24 06:30:11;;;;;;;10.83;5.17;;;14.50;81.40;;;;;;5045220;28;20033;-74
2021/09/24 06:32:36;;;;;;;10.88;4.57;;;14.50;81.10;;;;;;5044867;28;20021;-74
2021/09/24 06:35:03;;;;;;;9.97;4.97;;;14.50;80.90;;;;;;5065237;28;20339;-74
2021/09/24 06:37:29;;;;;;;10.60;5.25;;;14.50;81.00;;;;;;5064996;28;20075;-75
2021/09/24 06:39:55;;;;;;;7.97;4.63;;;14.60;80.80;;;;;;5065624;28;20258;-72
2021/09/24 06:42:21;;;;;;;7.60;4.93;;;14.50;81.30;;;;;;5047509;28;20024;-75
2021/09/24 06:44:46;;;;;;;8.03;4.93;;;14.70;80.70;;;;;;5066169;28;20577;-76
2021/09/24 06:47:13;;;;;;;10.30;5.17;;;14.70;80.70;;;;;;5066709;28;20017;-75
2021/09/24 06:49:38;;;;;;;7.38;4.70;;;14.60;81.20;;;;;;5065647;28;20056;-76
2021/09/24 06:52:05;;;;;;;8.50;4.90;;;14.70;81.20;;;;;;5064631;28;20350;-76
2021/09/24 06:54:31;;;;;;;7.63;4.65;;;14.70;80.70;;;;;;5048477;28;20020;-76
2021/09/24 06:56:57;;;;;;;8.63;4.88;;;14.70;80.70;;;;;;5048512;28;20035;-76
2021/09/24 06:59:23;;;;;;;9.97;4.90;;;14.70;81.80;;;;;;5048521;28;20028;-76
2021/09/24 07:01:49;;;;;;;7.73;4.83;;;14.80;80.90;;;;;;5065663;28;20033;-76
2021/09/24 07:04:15;;;;;;;7.93;4.23;;;14.70;80.80;;;;;;5066472;28;20047;-76
2021/09/24 07:06:42;;;;;;;8.10;4.33;;;14.70;80.90;;;;;;5065410;28;20033;-77
2021/09/24 07:09:08;;;;;;;9.98;5.25;;;14.70;81.00;;;;;;5049600;28;20024;-80
2021/09/24 07:11:34;;;;;;;15.10;6.37;;;14.80;80.80;;;;;;5064082;28;20066;-73
2021/09/24 07:14:00;;;;;;;7.72;4.35;;;14.80;80.70;;;;;;5082217;28;20021;-70
2021/09/24 07:16:26;;;;;;;8.02;5.13;;;14.80;80.90;;;;;;5084867;28;20024;-71
2021/09/24 07:18:52;;;;;;;8.47;4.67;;;14.90;80.70;;;;;;5084728;28;20319;-73
2021/09/24 07:21:18;;;;;;;7.50;4.50;;;14.90;80.90;;;;;;5083479;28;20095;-73
2021/09/24 07:23:44;;;;;;;8.70;5.03;;;14.90;80.40;;;;;;5065288;28;20052;-74
2021/09/24 07:26:10;;;;;;;9.15;5.50;;;14.90;81.00;;;;;;5065222;28;20024;-75
2021/09/24 07:28:36;;;;;;;7.30;5.37;;;15.10;80.50;;;;;;5084039;28;20024;-75
2021/09/24 07:31:03;;;;;;;7.80;5.03;;;15.10;80.40;;;;;;5085705;28;20021;-75
2021/09/24 07:33:29;;;;;;;6.28;4.70;;;15.10;80.10;;;;;;5069153;28;20104;-74
2021/09/24 07:35:54;;;;;;;8.90;4.73;;;15.10;80.00;;;;;;5084977;28;20267;-72
2021/09/24 07:38:21;;;;;;;9.33;4.67;;;15.10;80.00;;;;;;5071334;28;20358;-72
2021/09/24 07:40:47;;;;;;;;;;;15.10;79.70;;;;;;5063403;28;20017;-73
2021/09/24 07:43:14;;;;;;;8.65;4.70;;;15.20;80.30;;;;;;5062506;28;19912;-73
2021/09/24 07:45:40;;;;;;;;;;;15.30;80.20;;;;;;5063864;28;20024;-73
2021/09/24 07:48:06;;;;;;;7.50;4.30;;;15.40;79.50;;;;;;5064147;28;19938;-73
2021/09/24 07:50:32;;;;;;;8.55;4.40;;;15.30;79.30;;;;;;5068697;28;20027;-72
2021/09/24 07:52:58;;;;;;;6.93;4.50;;;15.30;79.50;;;;;;5063630;28;20029;-71
2021/09/24 07:55:24;;;;;;;8.97;4.43;;;15.40;80.30;;;;;;5063978;28;20017;-71
2021/09/24 07:57:55;;;;;;;8.67;4.80;;;15.50;80.10;;;;;;5063827;28;20021;-71
2021/09/24 08:00:22;;;;;;;10.73;4.47;;;15.50;80.30;;;;;;5078791;28;20020;-71
2021/09/24 08:02:48;;;;;;;9.70;5.05;;;15.50;80.10;;;;;;5079031;28;20016;-71
2021/09/24 08:05:13;;;;;;;9.53;5.10;;;15.50;79.90;;;;;;5079320;28;20092;-71
2021/09/24 08:07:39;;;;;;;6.40;4.20;;;15.60;79.70;;;;;;5082327;28;20318;-71
2021/09/24 08:10:06;;;;;;;10.60;5.33;;;15.70;79.80;;;;;;5084621;28;20079;-73
2021/09/24 08:12:31;;;;;;;5.68;4.20;;;15.80;80.10;;;;;;5082635;28;20063;-71
2021/09/24 08:14:57;;;;;;;8.03;4.73;;;15.90;79.00;;;;;;5083437;28;20025;-71
2021/09/24 08:17:23;;;;;;;7.43;4.60;;;16.00;78.20;;;;;;5083588;28;20034;-71
2021/09/24 08:19:49;;;;;;;7.53;4.70;;;16.00;78.10;;;;;;5083759;28;20016;-71
2021/09/24 08:22:14;;;;;;;7.07;4.80;;;15.90;77.30;;;;;;5082300;28;20200;-71
2021/09/24 08:24:40;;;;;;;9.07;5.00;;;15.90;77.40;;;;;;5083266;28;20086;-71
2021/09/24 08:27:06;;;;;;;11.40;4.70;;;15.90;77.40;;;;;;5083479;28;20028;-71
2021/09/24 08:29:32;;;;;;;6.60;4.73;;;16.00;78.30;;;;;;5083337;28;20021;-71
2021/09/24 08:31:59;;;;;;;5.00;4.00;;;16.00;77.80;;;;;;5083207;28;20070;-71
2021/09/24 08:34:25;;;;;;;9.25;5.30;;;16.00;76.90;;;;;;5083102;28;20270;-72
2021/09/24 08:36:51;;;;;;;7.53;4.90;;;16.00;77.60;;;;;;5082881;28;20024;-71
2021/09/24 08:39:17;;;;;;;8.60;4.55;;;16.10;77.20;;;;;;5081964;28;20320;-71
2021/09/24 08:41:43;;;;;;;9.50;4.77;;;16.20;77.00;;;;;;5081539;28;20036;-71
2021/09/24 08:44:08;;;;;;;11.87;4.93;;;16.20;76.30;;;;;;5082666;28;20381;-71
2021/09/24 08:46:34;;;;;;;7.40;4.60;;;16.10;76.30;;;;;;5083234;28;20018;-71
2021/09/24 08:49:03;;;;;;;8.20;5.10;;;16.10;76.70;;;;;;5082984;28;20021;-71
2021/09/24 08:51:29;;;;;;;7.30;4.35;;;16.20;77.40;;;;;;5064974;28;20039;-71
2021/09/24 08:53:55;;;;;;;7.50;4.93;;;16.10;76.90;;;;;;5082373;28;20327;-71
2021/09/24 08:56:21;;;;;;;8.20;4.53;;;16.20;76.20;;;;;;5082303;28;20097;-72
2021/09/24 08:58:47;;;;;;;8.47;4.80;;;16.30;76.00;;;;;;5082643;28;20161;-72
2021/09/24 09:01:12;;;;;;;11.60;5.47;;;16.30;76.50;;;;;;5082389;28;20057;-71
2021/09/24 09:03:41;;;;;;;10.63;7.07;;;16.30;76.00;;;;;;5082650;28;20208;-71
2021/09/24 09:06:07;;;;;;;9.15;5.88;;;16.50;76.50;;;;;;5064934;28;20021;-71
2021/09/24 09:08:33;;;;;;;8.38;5.07;;;16.60;76.60;;;;;;5082460;28;20354;-71
2021/09/24 09:11:03;;;;;;;8.30;4.73;;;16.50;75.40;;;;;;5080903;28;20048;-70
2021/09/24 09:13:34;;;;;;;9.38;4.68;;;16.50;75.60;;;;;;5065246;28;20020;-71
2021/09/24 09:16:12;;;;;;;10.35;5.30;;;16.60;75.40;;;;;;5081352;28;20020;-71
2021/09/24 09:18:39;;;;;;;;;;;16.60;75.90;;;;;;5065684;28;20032;-71
2021/09/24 09:21:07;;;;;;;9.73;5.35;;;16.80;75.40;;;;;;5064383;28;19905;-70
2021/09/24 09:23:35;;;;;;;9.93;5.50;;;16.80;74.10;;;;;;5064308;28;20054;-71
2021/09/24 09:26:04;;;;;;;7.88;4.95;;;16.80;74.60;;;;;;5081984;28;20020;-70
2021/09/24 09:28:38;;;;;;;11.98;5.60;;;16.90;74.40;;;;;;5032010;28;20028;-71
2021/09/24 09:31:32;;;;;;;11.20;5.63;;;16.90;74.40;;;;;;5080993;28;20051;-71
2021/09/24 09:34:00;;;;;;;9.13;5.25;;;16.90;74.90;;;;;;5080885;28;20322;-71
2021/09/24 09:36:29;;;;;;;7.50;4.90;;;16.90;74.90;;;;;;5048568;28;20031;-71
2021/09/24 09:38:56;;;;;;;8.15;5.45;;;17.00;75.10;;;;;;5064315;28;20335;-70
2021/09/24 09:41:22;;;;;;;;;;;17.10;75.20;;;;;;5064782;28;20023;-71
2021/09/24 09:43:52;;;;;;;11.32;5.47;;;17.20;73.90;;;;;;5064338;28;20251;-71
2021/09/24 09:46:24;;;;;;;8.07;4.97;;;17.30;74.20;;;;;;5065064;28;20040;-71
2021/09/24 09:49:11;;;;;;;9.02;6.03;;;17.30;73.10;;;;;;5081040;28;20039;-71
2021/09/24 09:51:40;;;;;;;10.43;5.57;;;17.30;72.50;;;;;;5064916;28;20021;-71
2021/09/24 09:54:11;;;;;;;6.40;4.82;;;17.40;73.30;;;;;;5080810;28;20032;-71
2021/09/24 09:56:44;;;;;;;6.25;4.70;;;17.50;72.90;;;;;;5082714;28;20021;-71
2021/09/24 09:59:26;;;;;;;11.18;5.28;;;17.70;73.30;;;;;;5065008;28;20093;-71
2021/09/24 10:02:16;;;;;;;8.23;5.28;;;17.70;72.00;;;;;;5081885;28;20261;-71
2021/09/24 10:04:53;;;;;;;8.75;5.43;;;17.60;72.30;;;;;;5064412;28;20085;-71
2021/09/24 10:07:21;;;;;;;9.50;4.43;;;17.70;72.60;;;;;;5080794;28;20319;-71
2021/09/24 10:09:47;;;;;;;9.38;6.20;;;17.70;72.70;;;;;;5085152;28;20099;-72
2021/09/24 10:12:21;;;;;;;8.35;5.35;;;17.60;72.40;;;;;;5085788;28;20032;-72
2021/09/24 10:14:49;;;;;;;7.43;5.57;;;17.60;72.00;;;;;;5067944;28;20040;-71
2021/09/24 10:17:16;;;;;;;6.35;5.22;;;17.60;72.60;;;;;;5077969;28;20335;-71
2021/09/24 10:19:43;;;;;;;11.20;5.40;;;17.60;71.90;;;;;;5065705;28;20028;-71
2021/09/24 10:22:11;;;;;;;9.23;4.63;;;17.60;71.60;;;;;;5031172;28;20060;-72
2021/09/24 10:24:37;;;;;;;6.05;3.63;;;17.80;71.70;;;;;;5031422;28;20032;-71
2021/09/24 10:27:05;;;;;;;7.63;4.10;;;17.90;71.80;;;;;;5031114;28;20086;-71
2021/09/24 10:29:33;;;;;;;6.78;3.95;;;18.00;69.80;;;;;;5031765;28;20029;-71
2021/09/24 10:32:24;;;;;;;5.40;4.07;;;18.00;70.60;;;;;;5014844;28;20025;-71
2021/09/24 10:35:03;;;;;;;11.30;4.43;;;18.00;69.70;;;;;;5064189;28;20267;-71
2021/09/24 10:37:32;;;;;;;6.55;4.13;;;18.00;70.10;;;;;;5065106;28;20286;-71
2021/09/24 10:39:59;;;;;;;7.97;3.40;;;18.10;69.30;;;;;;5047667;28;20060;-71
2021/09/24 10:42:35;;;;;;;11.32;4.10;;;18.10;70.30;;;;;;5064101;28;20198;-71
2021/09/24 10:45:22;;;;;;;4.47;3.40;;;18.20;68.20;;;;;;5065357;28;20411;-71
2021/09/24 10:48:23;;;;;;;10.10;4.80;;;18.20;69.10;;;;;;5074662;28;20060;-71
2021/09/24 10:50:55;;;;;;;5.70;3.85;;;18.20;68.50;;;;;;5071296;28;20035;-72
2021/09/24 10:53:39;;;;;;;4.82;3.10;;;18.10;67.70;;;;;;5085019;28;20272;-71
2021/09/24 10:56:04;;;;;;;5.70;3.40;;;18.10;69.20;;;;;;5083572;28;20024;-71
2021/09/24 10:58:30;;;;;;;7.47;4.10;;;18.20;69.40;;;;;;5084836;28;20149;-71
2021/09/24 11:01:12;;;;;;;9.00;3.57;;;18.30;69.20;;;;;;5084536;28;20039;-71
2021/09/24 11:04:12;;;;;;;3.67;2.95;;;18.40;68.30;;;;;;5083622;28;20017;-71
2021/09/24 11:06:49;;;;;;;5.38;3.53;;;18.40;68.30;;;;;;5083310;28;20024;-72
2021/09/24 11:09:21;;;;;;;4.97;3.42;;;18.50;68.40;;;;;;5083386;28;20025;-71
2021/09/24 11:12:07;;;;;;;5.32;3.08;;;18.50;67.80;;;;;;5083131;28;20024;-71
2021/09/24 11:14:38;;;;;;;5.95;2.58;;;18.60;67.90;;;;;;5083606;28;20017;-71
2021/09/24 11:17:08;;;;;;;6.00;3.63;;;18.80;67.90;;;;;;5079795;28;20021;-71
2021/09/24 11:19:44;;;;;;;4.35;3.22;;;18.90;67.90;;;;;;5046360;28;20021;-71
2021/09/24 11:22:20;;;;;;;6.03;3.35;;;19.00;66.60;;;;;;5046965;28;20035;-71
2021/09/24 11:24:59;;;;;;;4.63;3.05;;;19.10;66.70;;;;;;5046954;28;20028;-71
2021/09/24 11:27:33;;;;;;;6.50;3.10;;;18.90;66.90;;;;;;5064332;28;20025;-71
2021/09/24 11:30:02;;;;;;;5.22;3.58;;;18.90;66.20;;;;;;5047130;28;20231;-71
2021/09/24 11:32:54;;;;;;;4.65;3.10;;;18.80;66.00;;;;;;5064399;28;20346;-71
2021/09/24 11:35:29;;;;;;;5.63;3.10;;;18.80;66.40;;;;;;5063379;28;20056;-71
2021/09/24 11:38:14;;;;;;;3.90;2.70;;;18.80;66.90;;;;;;5046426;28;20075;-72
2021/09/24 11:40:45;;;;;;;4.63;2.33;;;18.80;66.70;;;;;;5047593;28;20053;-71
2021/09/24 11:43:14;;;;;;;4.45;2.85;;;18.80;65.70;;;;;;5046627;28;20032;-72
2021/09/24 11:45:42;;;;;;;5.40;2.47;;;18.80;66.30;;;;;;5063172;28;20212;-71
2021/09/24 11:48:09;;;;;;;3.38;2.35;;;18.90;65.90;;;;;;5063812;28;20036;-71
2021/09/24 11:50:36;;;;;;;6.97;2.65;;;18.90;66.50;;;;;;5063991;28;20058;-71
2021/09/24 11:53:04;;;;;;;4.43;2.30;;;19.00;66.40;;;;;;5046304;28;20092;-72
2021/09/24 11:55:37;;;;;;;4.05;2.10;;;19.10;64.80;;;;;;5046247;28;20021;-72
2021/09/24 11:58:21;;;;;;;5.57;2.20;;;19.10;66.80;;;;;;5063669;28;20021;-71
2021/09/24 12:00:51;;;;;;;4.30;2.00;;;19.20;65.00;;;;;;5064097;28;20088;-71
2021/09/24 12:03:28;;;;;;;4.30;2.10;;;19.30;64.20;;;;;;5046447;28;20219;-72
2021/09/24 12:06:06;;;;;;;3.47;1.75;;;19.30;63.10;;;;;;5047806;28;20025;-71
2021/09/24 12:08:46;;;;;;;3.70;2.38;;;19.30;63.70;;;;;;5062816;28;20025;-72
2021/09/24 12:11:16;;;;;;;3.85;2.22;;;19.30;62.70;;;;;;5047323;28;20123;-71
2021/09/24 12:13:53;;;;;;;3.53;2.15;;;19.30;62.90;;;;;;5063369;28;20051;-72
2021/09/24 12:16:26;;;;;;;3.28;1.85;;;19.40;62.60;;;;;;5062335;28;20088;-71
2021/09/24 12:18:54;;;;;;;2.55;1.95;;;19.40;63.40;;;;;;5062180;28;20031;-71
2021/09/24 12:21:48;;;;;;;3.83;2.58;;;19.50;62.50;;;;;;5061969;28;20028;-71
2021/09/24 12:24:34;;;;;;;4.78;2.10;;;19.60;62.80;;;;;;5048091;28;20024;-71
2021/09/24 12:27:33;;;;;;;4.15;2.50;;;19.60;62.00;;;;;;5029166;28;20276;-72
2021/09/24 12:30:16;;;;;;;4.05;2.53;;;19.60;62.00;;;;;;5048505;28;20025;-72
2021/09/24 12:32:42;;;;;;;5.10;2.13;;;19.50;62.20;;;;;;5061715;28;20098;-71
2021/09/24 12:35:09;;;;;;;4.37;3.03;;;19.70;63.00;;;;;;5063440;28;20033;-71
2021/09/24 12:37:36;;;;;;;5.22;2.83;;;19.80;62.90;;;;;;5062206;28;20029;-71
2021/09/24 12:40:11;;;;;;;6.68;2.40;;;19.90;61.90;;;;;;5062246;28;20331;-71
2021/09/24 12:42:52;;;;;;;3.00;1.95;;;20.00;61.80;;;;;;5061968;28;20021;-70
2021/09/24 12:45:36;;;;;;;3.38;2.08;;;20.00;61.60;;;;;;5047075;28;20036;-71
2021/09/24 12:48:13;;;;;;;3.10;1.92;;;20.10;61.30;;;;;;5062837;28;20029;-72
2021/09/24 12:50:41;;;;;;;4.55;2.42;;;20.20;62.60;;;;;;5045897;28;20028;-71
2021/09/24 12:53:07;;;;;;;3.17;2.25;;;20.20;62.10;;;;;;5029344;28;20085;-72